sensor_id;sensor_type;location;lat;lon;timestamp;P1;durP1;ratioP1;P2;durP2;ratioP2
2720;SDS011;1368;49.484;11.112;2023-05-10T00:00:32;9.27;;;7.30;;
2720;SDS011;1368;49.484;11.112;2023-05-10T00:02:57;9.33;;;8.33;;
2720;SDS011;1368;49.484;11.112;2023-05-10T00:05:23;11.77;;;7.37;;
2720;SDS011;1368;49.484;11.112;2023-05-10T00:07:48;9.80;;;7.60;;
2720;SDS011;1368;49.484;11.112;2023-05-10T00:10:14;9.97;;;8.37;;
2720;SDS011;1368;49.484;11.112;2023-05-10T00:12:39;10.50;;;9.17;;
2720;SDS011;1368;49.484;11.112;2023-05-10T00:15:05;9.67;;;8.67;;
2720;SDS011;1368;49.484;11.112;2023-05-10T00:17:31;10.33;;;9.13;;
2720;SDS011;1368;49.484;11.112;2023-05-10T00:19:57;11.80;;;9.50;;
2720;SDS011;1368;49.484;11.112;2023-05-10T00:22:22;10.50;;;9.40;;
2720;SDS011;1368;49.484;11.112;2023-05-10T00:24:48;10.90;;;9.50;;
2720;SDS011;1368;49.484;11.112;2023-05-10T00:27:13;12.50;;;9.37;;
2720;SDS011;1368;49.484;11.112;2023-05-10T00:29:39;12.53;;;10.67;;
2720;SDS011;1368;49.484;11.112;2023-05-10T00:32:04;11.60;;;9.60;;
2720;SDS011;1368;49.484;11.112;2023-05-10T00:34:30;15.53;;;10.30;;
2720;SDS011;1368;49.484;11.112;2023-05-10T00:36:56;14.30;;;10.10;;
2720;SDS011;1368;49.484;11.112;2023-05-10T00:39:22;14.70;;;11.93;;
2720;SDS011;1368;49.484;11.112;2023-05-10T00:41:47;13.03;;;11.40;;
2720;SDS011;1368;49.484;11.112;2023-05-10T00:44:13;13.33;;;11.60;;
2720;SDS011;1368;49.484;11.112;2023-05-10T00:46:39;14.00;;;10.43;;
2720;SDS011;1368;49.484;11.112;2023-05-10T00:49:06;12.50;;;11.20;;
2720;SDS011;1368;49.484;11.112;2023-05-10T00:51:31;14.17;;;10.90;;
2720;SDS011;1368;49.484;11.112;2023-05-10T00:53:57;13.77;;;12.30;;
2720;SDS011;1368;49.484;11.112;2023-05-10T00:56:24;14.10;;;12.60;;
2720;SDS011;1368;49.484;11.112;2023-05-10T00:58:50;16.33;;;13.50;;
2720;SDS011;1368;49.484;11.112;2023-05-10T01:01:16;13.90;;;12.10;;
2720;SDS011;1368;49.484;11.112;2023-05-10T01:03:42;17.43;;;13.10;;
2720;SDS011;1368;49.484;11.112;2023-05-10T01:06:08;16.20;;;11.90;;
2720;SDS011;1368;49.484;11.112;2023-05-10T01:08:35;17.07;;;13.13;;
2720;SDS011;1368;49.484;11.112;2023-05-10T01:11:01;15.40;;;13.57;;
2720;SDS011;1368;49.484;11.112;2023-05-10T01:15:58;19.40;;;13.40;;
2720;SDS011;1368;49.484;11.112;2023-05-10T01:18:24;17.43;;;14.00;;
2720;SDS011;1368;49.484;11.112;2023-05-10T01:20:54;16.87;;;13.63;;
2720;SDS011;1368;49.484;11.112;2023-05-10T01:37:39;17.00;;;14.90;;
2720;SDS011;1368;49.484;11.112;2023-05-10T01:40:20;22.23;;;16.20;;
2720;SDS011;1368;49.484;11.112;2023-05-10T01:43:08;17.40;;;13.93;;
2720;SDS011;1368;49.484;11.112;2023-05-10T01:48:14;17.70;;;14.17;;
2720;SDS011;1368;49.484;11.112;2023-05-10T01:50:42;23.60;;;16.30;;
2720;SDS011;1368;49.484;11.112;2023-05-10T01:53:11;19.60;;;16.63;;
2720;SDS011;1368;49.484;11.112;2023-05-10T01:55:55;19.87;;;15.03;;
2720;SDS011;1368;49.484;11.112;2023-05-10T01:58:23;23.33;;;17.70;;
2720;SDS011;1368;49.484;11.112;2023-05-10T02:00:52;24.60;;;15.60;;
2720;SDS011;1368;49.484;11.112;2023-05-10T02:03:23;20.17;;;15.40;;
2720;SDS011;1368;49.484;11.112;2023-05-10T02:05:52;20.43;;;16.20;;
2720;SDS011;1368;49.484;11.112;2023-05-10T02:08:19;19.23;;;16.07;;
2720;SDS011;1368;49.484;11.112;2023-05-10T02:10:47;27.10;;;17.50;;
2720;SDS011;1368;49.484;11.112;2023-05-10T02:13:15;22.87;;;16.70;;
2720;SDS011;1368;49.484;11.112;2023-05-10T02:15:42;20.30;;;16.67;;
2720;SDS011;1368;49.484;11.112;2023-05-10T02:18:10;25.27;;;18.77;;
2720;SDS011;1368;49.484;11.112;2023-05-10T02:20:37;19.97;;;16.30;;
2720;SDS011;1368;49.484;11.112;2023-05-10T02:23:04;21.73;;;16.90;;
2720;SDS011;1368;49.484;11.112;2023-05-10T02:25:31;23.43;;;18.97;;
2720;SDS011;1368;49.484;11.112;2023-05-10T02:27:58;26.60;;;20.70;;
2720;SDS011;1368;49.484;11.112;2023-05-10T02:30:27;26.07;;;20.10;;
2720;SDS011;1368;49.484;11.112;2023-05-10T02:32:53;27.43;;;21.13;;
2720;SDS011;1368;49.484;11.112;2023-05-10T02:35:21;27.37;;;22.67;;
2720;SDS011;1368;49.484;11.112;2023-05-10T02:37:48;27.70;;;21.63;;
2720;SDS011;1368;49.484;11.112;2023-05-10T02:40:15;23.00;;;18.57;;
2720;SDS011;1368;49.484;11.112;2023-05-10T02:42:43;25.40;;;19.50;;
2720;SDS011;1368;49.484;11.112;2023-05-10T02:45:11;23.93;;;19.47;;
2720;SDS011;1368;49.484;11.112;2023-05-10T02:47:40;28.00;;;19.10;;
2720;SDS011;1368;49.484;11.112;2023-05-10T02:50:06;26.27;;;21.30;;
2720;SDS011;1368;49.484;11.112;2023-05-10T02:52:36;25.40;;;19.20;;
2720;SDS011;1368;49.484;11.112;2023-05-10T02:55:17;22.40;;;19.20;;
2720;SDS011;1368;49.484;11.112;2023-05-10T02:57:55;15.60;;;11.20;;
2720;SDS011;1368;49.484;11.112;2023-05-10T03:00:25;12.17;;;8.87;;
2720;SDS011;1368;49.484;11.112;2023-05-10T03:02:50;14.23;;;7.37;;
2720;SDS011;1368;49.484;11.112;2023-05-10T03:05:16;9.63;;;7.30;;
2720;SDS011;1368;49.484;11.112;2023-05-10T03:07:42;13.00;;;8.60;;
2720;SDS011;1368;49.484;11.112;2023-05-10T03:10:08;11.30;;;8.20;;
2720;SDS011;1368;49.484;11.112;2023-05-10T03:18:15;6.23;;;5.00;;
2720;SDS011;1368;49.484;11.112;2023-05-10T03:20:47;5.20;;;4.13;;
2720;SDS011;1368;49.484;11.112;2023-05-10T03:23:35;4.00;;;3.30;;
2720;SDS011;1368;49.484;11.112;2023-05-10T03:26:26;5.70;;;3.83;;
2720;SDS011;1368;49.484;11.112;2023-05-10T03:28:53;4.53;;;3.40;;
2720;SDS011;1368;49.484;11.112;2023-05-10T03:31:19;5.20;;;3.83;;
2720;SDS011;1368;49.484;11.112;2023-05-10T03:33:45;5.50;;;3.47;;
2720;SDS011;1368;49.484;11.112;2023-05-10T03:36:12;5.30;;;4.23;;
2720;SDS011;1368;49.484;11.112;2023-05-10T03:38:38;5.37;;;3.90;;
2720;SDS011;1368;49.484;11.112;2023-05-10T03:41:03;4.87;;;3.63;;
2720;SDS011;1368;49.484;11.112;2023-05-10T03:43:29;5.70;;;3.53;;
2720;SDS011;1368;49.484;11.112;2023-05-10T03:45:54;4.27;;;2.90;;
2720;SDS011;1368;49.484;11.112;2023-05-10T03:48:20;4.33;;;3.40;;
2720;SDS011;1368;49.484;11.112;2023-05-10T03:50:45;5.77;;;3.63;;
2720;SDS011;1368;49.484;11.112;2023-05-10T03:53:11;5.07;;;3.37;;
2720;SDS011;1368;49.484;11.112;2023-05-10T03:55:37;4.90;;;3.07;;
2720;SDS011;1368;49.484;11.112;2023-05-10T03:58:02;4.70;;;2.40;;
2720;SDS011;1368;49.484;11.112;2023-05-10T04:00:28;4.90;;;3.40;;
2720;SDS011;1368;49.484;11.112;2023-05-10T04:02:54;4.87;;;2.67;;
2720;SDS011;1368;49.484;11.112;2023-05-10T04:05:19;7.13;;;2.97;;
2720;SDS011;1368;49.484;11.112;2023-05-10T04:07:45;10.33;;;2.57;;
2720;SDS011;1368;49.484;11.112;2023-05-10T04:10:12;3.30;;;2.20;;
2720;SDS011;1368;49.484;11.112;2023-05-10T04:12:37;5.70;;;2.43;;
2720;SDS011;1368;49.484;11.112;2023-05-10T04:15:03;3.60;;;2.20;;
2720;SDS011;1368;49.484;11.112;2023-05-10T04:17:29;4.30;;;2.33;;
2720;SDS011;1368;49.484;11.112;2023-05-10T04:19:54;4.30;;;2.10;;
2720;SDS011;1368;49.484;11.112;2023-05-10T04:22:21;2.83;;;2.00;;
2720;SDS011;1368;49.484;11.112;2023-05-10T04:24:46;3.87;;;1.87;;
2720;SDS011;1368;49.484;11.112;2023-05-10T04:27:12;2.83;;;1.80;;
2720;SDS011;1368;49.484;11.112;2023-05-10T04:29:37;3.63;;;2.47;;
2720;SDS011;1368;49.484;11.112;2023-05-10T04:32:03;3.90;;;1.93;;
2720;SDS011;1368;49.484;11.112;2023-05-10T04:34:29;2.67;;;2.03;;
2720;SDS011;1368;49.484;11.112;2023-05-10T04:36:54;3.73;;;2.20;;
2720;SDS011;1368;49.484;11.112;2023-05-10T04:39:20;3.37;;;1.80;;
2720;SDS011;1368;49.484;11.112;2023-05-10T04:41:58;3.30;;;1.93;;
2720;SDS011;1368;49.484;11.112;2023-05-10T04:44:23;3.30;;;2.10;;
2720;SDS011;1368;49.484;11.112;2023-05-10T04:46:49;4.47;;;1.90;;
2720;SDS011;1368;49.484;11.112;2023-05-10T04:49:14;5.03;;;2.17;;
2720;SDS011;1368;49.484;11.112;2023-05-10T04:51:40;2.73;;;1.93;;
2720;SDS011;1368;49.484;11.112;2023-05-10T04:54:05;3.57;;;2.30;;
2720;SDS011;1368;49.484;11.112;2023-05-10T04:56:31;3.20;;;1.97;;
2720;SDS011;1368;49.484;11.112;2023-05-10T04:58:56;3.37;;;1.70;;
2720;SDS011;1368;49.484;11.112;2023-05-10T05:01:22;5.90;;;1.67;;
2720;SDS011;1368;49.484;11.112;2023-05-10T05:03:48;3.70;;;2.30;;
2720;SDS011;1368;49.484;11.112;2023-05-10T05:06:13;2.40;;;1.50;;
2720;SDS011;1368;49.484;11.112;2023-05-10T05:08:39;3.07;;;2.00;;
2720;SDS011;1368;49.484;11.112;2023-05-10T05:11:04;4.77;;;2.00;;
2720;SDS011;1368;49.484;11.112;2023-05-10T05:13:30;3.00;;;1.93;;
2720;SDS011;1368;49.484;11.112;2023-05-10T05:15:55;3.60;;;2.20;;
2720;SDS011;1368;49.484;11.112;2023-05-10T05:18:21;2.37;;;1.90;;
2720;SDS011;1368;49.484;11.112;2023-05-10T05:20:46;2.60;;;1.90;;
2720;SDS011;1368;49.484;11.112;2023-05-10T05:23:12;2.30;;;1.60;;
2720;SDS011;1368;49.484;11.112;2023-05-10T05:25:37;4.47;;;1.77;;
2720;SDS011;1368;49.484;11.112;2023-05-10T05:28:03;2.63;;;1.37;;
2720;SDS011;1368;49.484;11.112;2023-05-10T05:30:29;2.37;;;1.60;;
2720;SDS011;1368;49.484;11.112;2023-05-10T05:32:54;3.23;;;1.40;;
2720;SDS011;1368;49.484;11.112;2023-05-10T05:35:20;4.07;;;1.60;;
2720;SDS011;1368;49.484;11.112;2023-05-10T05:37:46;2.40;;;1.70;;
2720;SDS011;1368;49.484;11.112;2023-05-10T05:40:14;3.40;;;1.93;;
2720;SDS011;1368;49.484;11.112;2023-05-10T05:42:39;2.33;;;1.60;;
2720;SDS011;1368;49.484;11.112;2023-05-10T05:45:05;2.90;;;1.90;;
2720;SDS011;1368;49.484;11.112;2023-05-10T05:47:31;2.63;;;1.60;;
2720;SDS011;1368;49.484;11.112;2023-05-10T05:49:57;2.50;;;1.60;;
2720;SDS011;1368;49.484;11.112;2023-05-10T05:52:22;3.53;;;1.77;;
2720;SDS011;1368;49.484;11.112;2023-05-10T05:54:48;4.40;;;2.17;;
2720;SDS011;1368;49.484;11.112;2023-05-10T05:57:13;3.67;;;1.67;;
2720;SDS011;1368;49.484;11.112;2023-05-10T05:59:39;3.43;;;2.10;;
2720;SDS011;1368;49.484;11.112;2023-05-10T06:02:08;2.40;;;1.90;;
2720;SDS011;1368;49.484;11.112;2023-05-10T06:04:34;3.33;;;2.00;;
2720;SDS011;1368;49.484;11.112;2023-05-10T06:07:00;2.87;;;1.90;;
2720;SDS011;1368;49.484;11.112;2023-05-10T06:09:25;3.93;;;2.00;;
2720;SDS011;1368;49.484;11.112;2023-05-10T06:11:51;4.40;;;2.43;;
2720;SDS011;1368;49.484;11.112;2023-05-10T06:14:17;3.50;;;2.10;;
2720;SDS011;1368;49.484;11.112;2023-05-10T06:16:42;7.73;;;2.20;;
2720;SDS011;1368;49.484;11.112;2023-05-10T06:19:08;2.90;;;2.30;;
2720;SDS011;1368;49.484;11.112;2023-05-10T06:21:33;3.00;;;2.10;;
2720;SDS011;1368;49.484;11.112;2023-05-10T06:23:59;2.67;;;1.90;;
2720;SDS011;1368;49.484;11.112;2023-05-10T06:26:24;3.43;;;2.17;;
2720;SDS011;1368;49.484;11.112;2023-05-10T06:28:50;2.70;;;2.00;;
2720;SDS011;1368;49.484;11.112;2023-05-10T06:31:15;3.50;;;2.63;;
2720;SDS011;1368;49.484;11.112;2023-05-10T06:33:41;3.80;;;2.20;;
2720;SDS011;1368;49.484;11.112;2023-05-10T06:36:07;3.50;;;2.10;;
2720;SDS011;1368;49.484;11.112;2023-05-10T06:38:32;3.43;;;2.60;;
2720;SDS011;1368;49.484;11.112;2023-05-10T06:40:58;3.80;;;2.20;;
2720;SDS011;1368;49.484;11.112;2023-05-10T06:43:23;3.00;;;2.30;;
2720;SDS011;1368;49.484;11.112;2023-05-10T06:45:49;5.70;;;2.93;;
2720;SDS011;1368;49.484;11.112;2023-05-10T06:48:15;3.13;;;2.30;;
2720;SDS011;1368;49.484;11.112;2023-05-10T06:50:40;3.60;;;2.13;;
2720;SDS011;1368;49.484;11.112;2023-05-10T06:53:06;4.43;;;2.40;;
2720;SDS011;1368;49.484;11.112;2023-05-10T06:55:32;4.40;;;2.53;;
2720;SDS011;1368;49.484;11.112;2023-05-10T06:57:58;3.13;;;1.97;;
2720;SDS011;1368;49.484;11.112;2023-05-10T07:00:23;3.93;;;2.10;;
2720;SDS011;1368;49.484;11.112;2023-05-10T07:02:49;3.13;;;2.20;;
2720;SDS011;1368;49.484;11.112;2023-05-10T07:05:14;3.20;;;2.03;;
2720;SDS011;1368;49.484;11.112;2023-05-10T07:07:40;4.07;;;1.80;;
2720;SDS011;1368;49.484;11.112;2023-05-10T07:10:06;3.10;;;1.57;;
2720;SDS011;1368;49.484;11.112;2023-05-10T07:12:32;4.53;;;2.27;;
2720;SDS011;1368;49.484;11.112;2023-05-10T07:14:58;7.57;;;2.00;;
2720;SDS011;1368;49.484;11.112;2023-05-10T07:17:23;4.00;;;2.43;;
2720;SDS011;1368;49.484;11.112;2023-05-10T07:19:49;2.70;;;1.60;;
2720;SDS011;1368;49.484;11.112;2023-05-10T07:22:15;4.83;;;2.47;;
2720;SDS011;1368;49.484;11.112;2023-05-10T07:24:41;2.77;;;1.50;;
2720;SDS011;1368;49.484;11.112;2023-05-10T07:27:07;2.07;;;1.40;;
2720;SDS011;1368;49.484;11.112;2023-05-10T07:29:33;2.10;;;1.40;;
2720;SDS011;1368;49.484;11.112;2023-05-10T07:31:58;2.33;;;1.57;;
2720;SDS011;1368;49.484;11.112;2023-05-10T07:34:24;3.80;;;1.50;;
2720;SDS011;1368;49.484;11.112;2023-05-10T07:36:51;2.60;;;1.50;;
2720;SDS011;1368;49.484;11.112;2023-05-10T07:39:16;2.60;;;1.40;;
2720;SDS011;1368;49.484;11.112;2023-05-10T07:41:42;3.37;;;1.20;;
2720;SDS011;1368;49.484;11.112;2023-05-10T07:44:08;2.07;;;0.80;;
2720;SDS011;1368;49.484;11.112;2023-05-10T07:46:33;2.90;;;1.30;;
2720;SDS011;1368;49.484;11.112;2023-05-10T07:48:59;2.80;;;1.70;;
2720;SDS011;1368;49.484;11.112;2023-05-10T07:51:25;3.20;;;1.60;;
2720;SDS011;1368;49.484;11.112;2023-05-10T07:53:50;2.27;;;1.50;;
2720;SDS011;1368;49.484;11.112;2023-05-10T07:56:23;3.90;;;1.70;;
2720;SDS011;1368;49.484;11.112;2023-05-10T07:58:58;2.53;;;1.40;;
2720;SDS011;1368;49.484;11.112;2023-05-10T08:01:24;4.97;;;1.50;;
2720;SDS011;1368;49.484;11.112;2023-05-10T08:03:50;2.93;;;1.80;;
2720;SDS011;1368;49.484;11.112;2023-05-10T08:06:18;3.40;;;1.90;;
2720;SDS011;1368;49.484;11.112;2023-05-10T08:08:47;3.33;;;2.00;;
2720;SDS011;1368;49.484;11.112;2023-05-10T08:11:18;2.40;;;1.70;;
2720;SDS011;1368;49.484;11.112;2023-05-10T08:13:45;6.07;;;2.67;;
2720;SDS011;1368;49.484;11.112;2023-05-10T08:16:11;4.37;;;2.20;;
2720;SDS011;1368;49.484;11.112;2023-05-10T08:18:37;3.00;;;1.70;;
2720;SDS011;1368;49.484;11.112;2023-05-10T08:21:03;4.30;;;2.30;;
2720;SDS011;1368;49.484;11.112;2023-05-10T08:23:29;2.57;;;1.87;;
2720;SDS011;1368;49.484;11.112;2023-05-10T08:25:55;3.50;;;1.70;;
2720;SDS011;1368;49.484;11.112;2023-05-10T08:28:20;2.70;;;1.90;;
2720;SDS011;1368;49.484;11.112;2023-05-10T08:30:46;3.40;;;2.27;;
2720;SDS011;1368;49.484;11.112;2023-05-10T08:33:11;4.67;;;2.10;;
2720;SDS011;1368;49.484;11.112;2023-05-10T08:35:37;2.60;;;1.83;;
2720;SDS011;1368;49.484;11.112;2023-05-10T08:38:02;2.70;;;1.97;;
2720;SDS011;1368;49.484;11.112;2023-05-10T08:40:28;5.87;;;2.20;;
2720;SDS011;1368;49.484;11.112;2023-05-10T08:42:55;3.03;;;2.20;;
2720;SDS011;1368;49.484;11.112;2023-05-10T08:45:31;4.60;;;1.87;;
2720;SDS011;1368;49.484;11.112;2023-05-10T08:48:01;3.90;;;1.87;;
2720;SDS011;1368;49.484;11.112;2023-05-10T08:50:29;3.90;;;2.00;;
2720;SDS011;1368;49.484;11.112;2023-05-10T08:52:57;2.90;;;1.93;;
2720;SDS011;1368;49.484;11.112;2023-05-10T08:55:25;3.07;;;2.00;;
2720;SDS011;1368;49.484;11.112;2023-05-10T08:57:51;2.70;;;1.93;;
2720;SDS011;1368;49.484;11.112;2023-05-10T09:00:16;4.73;;;2.20;;
2720;SDS011;1368;49.484;11.112;2023-05-10T09:02:43;3.00;;;1.80;;
2720;SDS011;1368;49.484;11.112;2023-05-10T09:05:10;3.17;;;1.83;;
2720;SDS011;1368;49.484;11.112;2023-05-10T09:07:37;2.83;;;1.97;;
2720;SDS011;1368;49.484;11.112;2023-05-10T09:10:03;3.37;;;2.00;;
2720;SDS011;1368;49.484;11.112;2023-05-10T09:12:29;2.60;;;1.70;;
2720;SDS011;1368;49.484;11.112;2023-05-10T09:14:55;2.57;;;1.90;;
2720;SDS011;1368;49.484;11.112;2023-05-10T09:17:23;3.00;;;1.83;;
2720;SDS011;1368;49.484;11.112;2023-05-10T09:19:50;3.73;;;2.63;;
2720;SDS011;1368;49.484;11.112;2023-05-10T09:22:21;6.93;;;2.57;;
2720;SDS011;1368;49.484;11.112;2023-05-10T09:24:47;5.73;;;2.90;;
2720;SDS011;1368;49.484;11.112;2023-05-10T09:27:27;6.40;;;2.90;;
2720;SDS011;1368;49.484;11.112;2023-05-10T09:29:53;5.63;;;3.30;;
2720;SDS011;1368;49.484;11.112;2023-05-10T09:32:19;9.50;;;3.40;;
2720;SDS011;1368;49.484;11.112;2023-05-10T09:34:45;5.77;;;3.30;;
2720;SDS011;1368;49.484;11.112;2023-05-10T09:37:14;7.20;;;4.03;;
2720;SDS011;1368;49.484;11.112;2023-05-10T09:39:39;6.00;;;4.33;;
2720;SDS011;1368;49.484;11.112;2023-05-10T09:42:07;8.57;;;6.33;;
2720;SDS011;1368;49.484;11.112;2023-05-10T09:44:34;6.50;;;5.00;;
2720;SDS011;1368;49.484;11.112;2023-05-10T09:47:03;7.33;;;6.13;;
2720;SDS011;1368;49.484;11.112;2023-05-10T09:49:29;8.07;;;5.87;;
2720;SDS011;1368;49.484;11.112;2023-05-10T09:52:00;8.40;;;4.80;;
2720;SDS011;1368;49.484;11.112;2023-05-10T09:54:29;8.37;;;5.90;;
2720;SDS011;1368;49.484;11.112;2023-05-10T09:56:55;5.17;;;4.50;;
2720;SDS011;1368;49.484;11.112;2023-05-10T09:59:21;4.47;;;4.03;;
2720;SDS011;1368;49.484;11.112;2023-05-10T10:01:50;5.03;;;4.00;;
2720;SDS011;1368;49.484;11.112;2023-05-10T10:04:17;5.93;;;5.33;;
2720;SDS011;1368;49.484;11.112;2023-05-10T10:06:42;6.67;;;4.50;;
2720;SDS011;1368;49.484;11.112;2023-05-10T10:09:08;7.93;;;4.30;;
2720;SDS011;1368;49.484;11.112;2023-05-10T10:11:35;5.87;;;4.73;;
2720;SDS011;1368;49.484;11.112;2023-05-10T10:14:01;4.17;;;3.77;;
2720;SDS011;1368;49.484;11.112;2023-05-10T10:16:30;3.63;;;3.20;;
2720;SDS011;1368;49.484;11.112;2023-05-10T10:18:56;4.63;;;3.30;;
2720;SDS011;1368;49.484;11.112;2023-05-10T10:21:22;7.10;;;3.50;;
2720;SDS011;1368;49.484;11.112;2023-05-10T10:23:48;7.63;;;2.87;;
2720;SDS011;1368;49.484;11.112;2023-05-10T10:26:14;2.63;;;1.90;;
2720;SDS011;1368;49.484;11.112;2023-05-10T10:28:56;4.90;;;2.20;;
2720;SDS011;1368;49.484;11.112;2023-05-10T10:31:36;6.80;;;2.50;;
2720;SDS011;1368;49.484;11.112;2023-05-10T10:34:27;3.60;;;1.70;;
2720;SDS011;1368;49.484;11.112;2023-05-10T10:36:54;3.60;;;1.70;;
2720;SDS011;1368;49.484;11.112;2023-05-10T10:39:21;3.97;;;1.67;;
2720;SDS011;1368;49.484;11.112;2023-05-10T10:47:07;3.53;;;2.10;;
2720;SDS011;1368;49.484;11.112;2023-05-10T10:50:07;3.40;;;2.57;;
2720;SDS011;1368;49.484;11.112;2023-05-10T10:52:36;3.90;;;2.33;;
2720;SDS011;1368;49.484;11.112;2023-05-10T10:55:13;3.27;;;2.10;;
2720;SDS011;1368;49.484;11.112;2023-05-10T10:57:49;3.47;;;2.10;;
2720;SDS011;1368;49.484;11.112;2023-05-10T11:02:51;3.73;;;2.00;;
2720;SDS011;1368;49.484;11.112;2023-05-10T11:08:02;3.73;;;1.47;;
2720;SDS011;1368;49.484;11.112;2023-05-10T11:10:37;3.30;;;2.00;;
2720;SDS011;1368;49.484;11.112;2023-05-10T11:13:04;5.97;;;2.20;;
2720;SDS011;1368;49.484;11.112;2023-05-10T11:15:35;12.23;;;2.87;;
2720;SDS011;1368;49.484;11.112;2023-05-10T11:18:19;6.93;;;2.57;;
2720;SDS011;1368;49.484;11.112;2023-05-10T11:20:50;6.47;;;2.50;;
2720;SDS011;1368;49.484;11.112;2023-05-10T11:23:16;5.80;;;2.70;;
2720;SDS011;1368;49.484;11.112;2023-05-10T11:25:43;3.73;;;2.60;;
2720;SDS011;1368;49.484;11.112;2023-05-10T11:28:10;3.60;;;2.37;;
2720;SDS011;1368;49.484;11.112;2023-05-10T11:30:37;3.90;;;2.60;;
2720;SDS011;1368;49.484;11.112;2023-05-10T11:33:03;3.50;;;2.40;;
2720;SDS011;1368;49.484;11.112;2023-05-10T11:35:30;3.53;;;2.47;;
2720;SDS011;1368;49.484;11.112;2023-05-10T11:37:56;3.40;;;2.40;;
2720;SDS011;1368;49.484;11.112;2023-05-10T11:40:21;6.10;;;3.37;;
2720;SDS011;1368;49.484;11.112;2023-05-10T11:42:49;4.33;;;2.77;;
2720;SDS011;1368;49.484;11.112;2023-05-10T11:45:15;3.70;;;2.67;;
2720;SDS011;1368;49.484;11.112;2023-05-10T11:47:41;4.00;;;2.90;;
2720;SDS011;1368;49.484;11.112;2023-05-10T11:50:08;3.57;;;2.20;;
2720;SDS011;1368;49.484;11.112;2023-05-10T11:52:35;2.33;;;1.63;;
2720;SDS011;1368;49.484;11.112;2023-05-10T11:55:02;3.67;;;2.20;;
2720;SDS011;1368;49.484;11.112;2023-05-10T11:57:28;3.20;;;1.70;;
2720;SDS011;1368;49.484;11.112;2023-05-10T11:59:54;2.60;;;1.77;;
2720;SDS011;1368;49.484;11.112;2023-05-10T12:02:21;4.00;;;1.90;;
2720;SDS011;1368;49.484;11.112;2023-05-10T12:04:46;5.03;;;1.60;;
2720;SDS011;1368;49.484;11.112;2023-05-10T12:07:12;4.73;;;2.00;;
2720;SDS011;1368;49.484;11.112;2023-05-10T12:09:42;3.53;;;1.87;;
2720;SDS011;1368;49.484;11.112;2023-05-10T12:12:35;2.73;;;2.00;;
2720;SDS011;1368;49.484;11.112;2023-05-10T12:15:05;3.87;;;2.43;;
2720;SDS011;1368;49.484;11.112;2023-05-10T12:17:36;4.83;;;2.70;;
2720;SDS011;1368;49.484;11.112;2023-05-10T12:22:58;3.80;;;2.70;;
2720;SDS011;1368;49.484;11.112;2023-05-10T12:25:30;4.73;;;2.57;;
2720;SDS011;1368;49.484;11.112;2023-05-10T12:27:57;3.47;;;2.63;;
2720;SDS011;1368;49.484;11.112;2023-05-10T12:30:26;4.47;;;2.20;;
2720;SDS011;1368;49.484;11.112;2023-05-10T12:33:00;4.77;;;2.60;;
2720;SDS011;1368;49.484;11.112;2023-05-10T12:35:29;3.50;;;2.70;;
2720;SDS011;1368;49.484;11.112;2023-05-10T12:37:55;3.03;;;1.93;;
2720;SDS011;1368;49.484;11.112;2023-05-10T12:40:21;3.17;;;2.30;;
2720;SDS011;1368;49.484;11.112;2023-05-10T12:42:46;4.60;;;1.93;;
2720;SDS011;1368;49.484;11.112;2023-05-10T12:45:13;4.67;;;2.00;;
2720;SDS011;1368;49.484;11.112;2023-05-10T12:47:39;5.63;;;1.97;;
2720;SDS011;1368;49.484;11.112;2023-05-10T12:50:05;4.47;;;2.20;;
2720;SDS011;1368;49.484;11.112;2023-05-10T12:52:31;3.07;;;2.43;;
2720;SDS011;1368;49.484;11.112;2023-05-10T12:54:57;3.27;;;2.00;;
2720;SDS011;1368;49.484;11.112;2023-05-10T12:57:23;6.37;;;2.00;;
2720;SDS011;1368;49.484;11.112;2023-05-10T12:59:49;6.17;;;2.30;;
2720;SDS011;1368;49.484;11.112;2023-05-10T13:02:15;3.13;;;1.97;;
2720;SDS011;1368;49.484;11.112;2023-05-10T13:04:43;7.57;;;2.10;;
2720;SDS011;1368;49.484;11.112;2023-05-10T13:07:12;3.30;;;1.70;;
2720;SDS011;1368;49.484;11.112;2023-05-10T13:09:37;3.37;;;1.80;;
2720;SDS011;1368;49.484;11.112;2023-05-10T13:12:03;3.50;;;1.60;;
2720;SDS011;1368;49.484;11.112;2023-05-10T13:14:29;4.07;;;1.83;;
2720;SDS011;1368;49.484;11.112;2023-05-10T13:16:55;2.80;;;1.47;;
2720;SDS011;1368;49.484;11.112;2023-05-10T13:19:20;2.60;;;1.70;;
2720;SDS011;1368;49.484;11.112;2023-05-10T13:21:46;4.60;;;1.87;;
2720;SDS011;1368;49.484;11.112;2023-05-10T13:24:12;2.40;;;1.50;;
2720;SDS011;1368;49.484;11.112;2023-05-10T13:26:40;3.33;;;1.80;;
2720;SDS011;1368;49.484;11.112;2023-05-10T13:29:06;2.07;;;1.10;;
2720;SDS011;1368;49.484;11.112;2023-05-10T13:31:33;2.60;;;1.53;;
2720;SDS011;1368;49.484;11.112;2023-05-10T13:33:59;2.13;;;1.20;;
2720;SDS011;1368;49.484;11.112;2023-05-10T13:36:24;2.77;;;1.30;;
2720;SDS011;1368;49.484;11.112;2023-05-10T13:38:50;2.50;;;1.43;;
2720;SDS011;1368;49.484;11.112;2023-05-10T13:41:15;3.00;;;1.57;;
2720;SDS011;1368;49.484;11.112;2023-05-10T13:43:41;3.53;;;1.43;;
2720;SDS011;1368;49.484;11.112;2023-05-10T13:46:07;3.07;;;1.80;;
2720;SDS011;1368;49.484;11.112;2023-05-10T13:48:32;2.67;;;2.07;;
2720;SDS011;1368;49.484;11.112;2023-05-10T13:50:58;3.93;;;2.07;;
2720;SDS011;1368;49.484;11.112;2023-05-10T13:53:23;4.13;;;2.30;;
2720;SDS011;1368;49.484;11.112;2023-05-10T13:55:49;4.30;;;2.03;;
2720;SDS011;1368;49.484;11.112;2023-05-10T13:58:15;3.57;;;2.67;;
2720;SDS011;1368;49.484;11.112;2023-05-10T14:00:40;5.20;;;2.60;;
2720;SDS011;1368;49.484;11.112;2023-05-10T14:03:06;4.30;;;2.20;;
2720;SDS011;1368;49.484;11.112;2023-05-10T14:05:33;4.47;;;2.70;;
2720;SDS011;1368;49.484;11.112;2023-05-10T14:07:59;3.50;;;2.40;;
2720;SDS011;1368;49.484;11.112;2023-05-10T14:10:25;4.40;;;2.07;;
2720;SDS011;1368;49.484;11.112;2023-05-10T14:12:50;7.90;;;3.10;;
2720;SDS011;1368;49.484;11.112;2023-05-10T14:15:16;4.90;;;3.50;;
2720;SDS011;1368;49.484;11.112;2023-05-10T14:17:54;3.20;;;2.40;;
2720;SDS011;1368;49.484;11.112;2023-05-10T14:20:19;6.93;;;3.73;;
2720;SDS011;1368;49.484;11.112;2023-05-10T14:22:45;4.27;;;3.03;;
2720;SDS011;1368;49.484;11.112;2023-05-10T14:25:10;5.13;;;3.00;;
2720;SDS011;1368;49.484;11.112;2023-05-10T14:27:36;7.07;;;2.83;;
2720;SDS011;1368;49.484;11.112;2023-05-10T14:30:02;4.20;;;2.50;;
2720;SDS011;1368;49.484;11.112;2023-05-10T14:32:27;8.53;;;3.07;;
2720;SDS011;1368;49.484;11.112;2023-05-10T14:34:53;4.80;;;3.40;;
2720;SDS011;1368;49.484;11.112;2023-05-10T14:37:18;4.67;;;3.00;;
2720;SDS011;1368;49.484;11.112;2023-05-10T14:39:44;4.47;;;2.70;;
2720;SDS011;1368;49.484;11.112;2023-05-10T14:42:10;3.30;;;2.90;;
2720;SDS011;1368;49.484;11.112;2023-05-10T14:44:35;5.20;;;3.13;;
2720;SDS011;1368;49.484;11.112;2023-05-10T14:47:01;5.20;;;3.13;;
2720;SDS011;1368;49.484;11.112;2023-05-10T14:49:27;8.00;;;3.50;;
2720;SDS011;1368;49.484;11.112;2023-05-10T15:33:18;4.10;;;3.20;;
2720;SDS011;1368;49.484;11.112;2023-05-10T15:35:44;3.70;;;1.90;;
2720;SDS011;1368;49.484;11.112;2023-05-10T15:38:09;2.70;;;1.63;;
2720;SDS011;1368;49.484;11.112;2023-05-10T15:40:35;2.40;;;1.40;;
2720;SDS011;1368;49.484;11.112;2023-05-10T15:43:01;4.83;;;3.30;;
2720;SDS011;1368;49.484;11.112;2023-05-10T15:45:27;4.63;;;2.00;;
2720;SDS011;1368;49.484;11.112;2023-05-10T15:47:52;4.30;;;2.03;;
2720;SDS011;1368;49.484;11.112;2023-05-10T15:50:18;3.47;;;2.10;;
2720;SDS011;1368;49.484;11.112;2023-05-10T15:52:43;3.43;;;2.07;;
2720;SDS011;1368;49.484;11.112;2023-05-10T15:55:09;3.77;;;2.50;;
2720;SDS011;1368;49.484;11.112;2023-05-10T15:57:40;8.10;;;3.00;;
2720;SDS011;1368;49.484;11.112;2023-05-10T16:03:06;3.50;;;2.23;;
2720;SDS011;1368;49.484;11.112;2023-05-10T16:05:32;2.63;;;1.70;;
2720;SDS011;1368;49.484;11.112;2023-05-10T16:07:58;3.27;;;1.70;;
2720;SDS011;1368;49.484;11.112;2023-05-10T16:10:24;5.53;;;2.17;;
2720;SDS011;1368;49.484;11.112;2023-05-10T16:12:50;3.40;;;2.40;;
2720;SDS011;1368;49.484;11.112;2023-05-10T16:15:15;5.47;;;2.57;;
2720;SDS011;1368;49.484;11.112;2023-05-10T16:17:41;3.50;;;2.40;;
2720;SDS011;1368;49.484;11.112;2023-05-10T16:20:07;5.00;;;2.20;;